Guymon Municipal Airport Guymon US
ICAO: KGUY
IATA: GUY
Category: Medium
Scheduled Services: No

Elevation: 3123 ft
TransAlt. 18000 ft.

Airport Communications:
ASOS:119.925
KANSAS CITY CNTR:134
CTAF/UNICOM:122.7

KGUY Zoom In..

If you have problems with the map follow the link
https://www.worldairports.se/pages/airport.php?
ICAO=KGUY

Runways:

(A) RW 18 length 5904 ft width 100 ft
---- / hdg 177

(B) RW 36 length 5904 ft width 100 ft
---- / hdg 357

Location; KGUY
Day. 18 / Time. 01.53 Zulu
* Altimeter: 30.00
* Temperature: -01° c. -30.2°f.
* Wind from: 060° Speed 13 kn.
Dewpoint: -09° c.
Visibility: 10 Statute Miles.
Clouds: Clear (automated report).

KGUY 180153Z AUTO 06013KT 10SM CLR M01/M09 A3000 RMK AO2 SLP176 T10061094


Wind From 060°
Speed 13 kn.

 
 
jpsmedia.com for Web Design worldairports.se 2019   terms of use